createdAt,value
2023-02-23T00:02:06.479Z,-2.89
2023-02-23T00:04:35.704Z,-2.83
2023-02-23T00:07:03.599Z,-2.76
2023-02-23T00:09:36.115Z,-2.71
2023-02-23T00:12:08.454Z,-2.75
2023-02-23T00:14:38.505Z,-2.74
2023-02-23T00:17:15.193Z,-2.70
2023-02-23T00:19:46.502Z,-2.70
2023-02-23T00:22:14.270Z,-2.69
2023-02-23T00:24:43.222Z,-2.65
2023-02-23T00:27:13.666Z,-2.60
2023-02-23T00:29:42.038Z,-2.58
2023-02-23T00:32:10.334Z,-2.61
2023-02-23T00:34:38.301Z,-2.58
2023-02-23T00:37:08.073Z,-2.53
2023-02-23T00:39:36.408Z,-2.53
2023-02-23T00:42:06.971Z,-2.50
2023-02-23T00:44:35.680Z,-2.49
2023-02-23T00:47:03.970Z,-2.46
2023-02-23T00:49:32.194Z,-2.46
2023-02-23T00:52:00.294Z,-2.49
2023-02-23T00:54:28.326Z,-2.54
2023-02-23T00:56:56.186Z,-2.60
2023-02-23T00:59:24.063Z,-2.57
2023-02-23T01:01:52.986Z,-2.58
2023-02-23T01:04:23.822Z,-2.69
2023-02-23T01:06:51.783Z,-2.72
2023-02-23T01:09:28.590Z,-2.83
2023-02-23T01:11:57.569Z,-2.80
2023-02-23T01:14:25.596Z,-2.84
2023-02-23T01:16:53.846Z,-2.87
2023-02-23T01:19:21.898Z,-2.88
2023-02-23T01:21:50.564Z,-2.80
2023-02-23T01:24:18.730Z,-2.66
2023-02-23T01:26:46.815Z,-2.59
2023-02-23T01:29:18.301Z,-2.49
2023-02-23T01:31:48.578Z,-2.42
2023-02-23T01:34:22.084Z,-2.27
2023-02-23T01:36:50.034Z,-2.23
2023-02-23T01:39:19.288Z,-2.37
2023-02-23T01:41:47.949Z,-2.41
2023-02-23T01:44:15.985Z,-2.43
2023-02-23T01:46:45.824Z,-2.55
2023-02-23T01:49:21.071Z,-2.64
2023-02-23T01:52:11.720Z,-2.73
2023-02-23T01:54:51.128Z,-2.89
2023-02-23T01:57:20.045Z,-2.94
2023-02-23T01:59:49.978Z,-3.02
2023-02-23T02:02:22.753Z,-3.02
2023-02-23T02:04:52.840Z,-3.09
2023-02-23T02:07:25.439Z,-3.08
2023-02-23T02:10:14.506Z,-3.09
2023-02-23T02:12:44.944Z,-3.01
2023-02-23T02:15:17.687Z,-3.09
2023-02-23T02:18:12.455Z,-3.05
2023-02-23T02:21:17.792Z,-3.06
2023-02-23T02:23:51.243Z,-3.11
2023-02-23T02:26:22.393Z,-3.12
2023-02-23T02:29:21.352Z,-3.08
2023-02-23T02:32:11.798Z,-2.94
2023-02-23T02:35:07.968Z,-2.76
2023-02-23T02:37:51.192Z,-2.61
2023-02-23T02:40:35.028Z,-2.58
2023-02-23T02:43:39.135Z,-2.70
2023-02-23T02:46:22.280Z,-2.67
2023-02-23T02:49:07.204Z,-2.49
2023-02-23T02:51:44.557Z,-2.36
2023-02-23T02:54:15.617Z,-2.15
2023-02-23T02:56:44.700Z,-1.97
2023-02-23T02:59:33.199Z,-1.78
2023-02-23T03:02:19.985Z,-1.68
2023-02-23T03:05:06.718Z,-1.70
2023-02-23T03:08:00.231Z,-1.87
2023-02-23T03:10:59.475Z,-1.98
2023-02-23T03:14:07.737Z,-2.11
2023-02-23T03:17:20.377Z,-2.29
2023-02-23T03:20:51.778Z,-2.32
2023-02-23T03:23:52.881Z,-2.31
2023-02-23T03:26:48.581Z,-2.29
2023-02-23T03:29:44.401Z,-2.03
2023-02-23T03:32:37.738Z,-1.89
2023-02-23T03:35:28.080Z,-1.82
2023-02-23T03:38:20.559Z,-1.69
2023-02-23T03:41:07.262Z,-1.74
2023-02-23T03:44:15.698Z,-1.61
2023-02-23T03:47:02.856Z,-1.49
2023-02-23T03:49:51.174Z,-1.33
2023-02-23T03:53:01.463Z,-1.15
2023-02-23T03:55:50.564Z,-1.06
2023-02-23T03:58:42.069Z,-1.26
2023-02-23T04:01:28.914Z,-1.07
2023-02-23T04:04:15.717Z,-0.84
2023-02-23T04:07:05.717Z,-0.77
2023-02-23T04:09:51.814Z,-0.97
2023-02-23T04:12:59.002Z,-1.00
2023-02-23T04:15:41.123Z,-1.05
2023-02-23T04:18:13.352Z,-1.10
2023-02-23T04:20:41.770Z,-1.18
2023-02-23T04:23:09.610Z,-1.08
2023-02-23T04:25:37.838Z,-0.87
2023-02-23T04:28:05.961Z,-0.71
2023-02-23T04:30:34.472Z,-0.54
2023-02-23T04:33:02.626Z,-0.31
2023-02-23T04:35:31.826Z,-0.14
2023-02-23T04:38:00.107Z,0.04
2023-02-23T04:40:27.985Z,-0.04
2023-02-23T04:42:56.093Z,-0.08
2023-02-23T04:45:24.194Z,-0.09
2023-02-23T04:47:52.417Z,0.12
2023-02-23T04:50:20.882Z,0.22
2023-02-23T04:52:49.221Z,0.30
2023-02-23T04:55:19.719Z,0.16
2023-02-23T04:57:48.112Z,-0.06
2023-02-23T05:00:16.822Z,-0.21
2023-02-23T05:02:47.729Z,-0.27
2023-02-23T05:05:17.080Z,-0.12
2023-02-23T05:07:45.003Z,-0.04
2023-02-23T05:10:14.215Z,-0.01
2023-02-23T05:12:42.103Z,-0.20
2023-02-23T05:15:11.904Z,-0.26
2023-02-23T05:17:42.406Z,-0.32
2023-02-23T05:20:11.760Z,-0.38
2023-02-23T05:22:39.919Z,-0.29
2023-02-23T05:25:09.671Z,-0.14
2023-02-23T05:27:37.903Z,-0.14
2023-02-23T05:30:08.282Z,-0.16
2023-02-23T05:32:36.989Z,0.09
2023-02-23T05:35:05.222Z,0.36
2023-02-23T05:37:34.240Z,0.56
2023-02-23T05:40:02.469Z,0.89
2023-02-23T05:42:30.740Z,1.04
2023-02-23T05:44:58.828Z,1.17
2023-02-23T05:47:27.087Z,1.21
2023-02-23T05:49:55.308Z,1.17
2023-02-23T05:52:23.278Z,1.12
2023-02-23T05:54:51.546Z,1.09
2023-02-23T05:57:19.646Z,0.89
2023-02-23T05:59:47.816Z,0.83
2023-02-23T06:02:16.161Z,0.61
2023-02-23T06:04:44.300Z,0.42
2023-02-23T06:07:12.386Z,0.50
2023-02-23T06:09:43.499Z,0.57
2023-02-23T06:12:12.671Z,0.77
2023-02-23T06:14:40.723Z,0.96
2023-02-23T06:17:08.990Z,0.95
2023-02-23T06:19:37.212Z,1.02
2023-02-23T06:22:05.462Z,1.22
2023-02-23T06:24:34.803Z,1.43
2023-02-23T06:27:02.835Z,1.60
2023-02-23T06:29:30.937Z,1.71
2023-02-23T06:32:01.112Z,1.86
2023-02-23T06:34:29.319Z,1.90
2023-02-23T06:36:59.527Z,1.87
2023-02-23T06:39:27.735Z,1.94
2023-02-23T06:41:56.254Z,1.96
2023-02-23T06:44:24.679Z,2.02
2023-02-23T06:46:52.956Z,1.97
2023-02-23T06:49:21.562Z,2.06
2023-02-23T06:51:49.786Z,2.17
2023-02-23T06:54:18.099Z,2.08
2023-02-23T06:56:46.933Z,2.00
2023-02-23T06:59:14.674Z,1.87
2023-02-23T07:01:45.242Z,1.88
2023-02-23T07:04:16.224Z,1.72
2023-02-23T07:06:44.592Z,1.64
2023-02-23T07:09:12.896Z,1.55
2023-02-23T07:11:42.150Z,1.57
2023-02-23T07:14:21.519Z,1.58
2023-02-23T07:16:54.434Z,1.48
2023-02-23T07:19:24.136Z,1.30
2023-02-23T07:21:52.401Z,1.19
2023-02-23T07:24:20.320Z,1.25
2023-02-23T07:26:49.821Z,1.25
2023-02-23T07:29:18.051Z,1.18
2023-02-23T07:31:46.473Z,1.05
2023-02-23T07:34:15.024Z,1.19
2023-02-23T07:36:42.914Z,1.31
2023-02-23T07:39:10.785Z,1.44
2023-02-23T07:41:39.086Z,1.44
2023-02-23T07:44:16.380Z,1.44
2023-02-23T07:46:45.420Z,1.61
2023-02-23T07:49:13.686Z,1.73
2023-02-23T07:51:42.103Z,1.84
2023-02-23T07:54:10.503Z,1.68
2023-02-23T07:56:38.951Z,1.93
2023-02-23T07:59:06.891Z,2.18
2023-02-23T08:01:34.925Z,2.37
2023-02-23T08:04:02.868Z,2.64
2023-02-23T08:06:31.727Z,2.82
2023-02-23T08:09:01.473Z,2.76
2023-02-23T08:11:29.863Z,2.80
2023-02-23T08:14:00.587Z,2.92
2023-02-23T08:16:32.653Z,3.22
2023-02-23T08:19:01.123Z,3.43
2023-02-23T08:21:30.101Z,3.56
2023-02-23T08:23:58.661Z,3.46
2023-02-23T08:26:26.926Z,3.49
2023-02-23T08:28:55.004Z,3.66
2023-02-23T08:31:24.873Z,3.71
2023-02-23T08:33:53.664Z,3.78
2023-02-23T08:36:22.169Z,3.74
2023-02-23T08:38:50.040Z,3.74
2023-02-23T08:41:18.399Z,3.76
2023-02-23T08:43:47.447Z,3.57
2023-02-23T08:46:17.132Z,3.38
2023-02-23T08:48:45.252Z,3.38
2023-02-23T08:51:15.029Z,3.36
2023-02-23T08:53:43.665Z,3.18
2023-02-23T08:56:13.228Z,2.99
2023-02-23T08:58:41.305Z,3.10
2023-02-23T09:01:18.556Z,3.15
2023-02-23T09:03:50.187Z,3.09
2023-02-23T09:06:20.134Z,3.04
2023-02-23T09:08:48.310Z,3.05
2023-02-23T09:11:16.933Z,3.24
2023-02-23T09:13:45.317Z,3.38
2023-02-23T09:16:13.612Z,3.37
2023-02-23T09:18:42.006Z,3.20
2023-02-23T09:21:19.739Z,3.14
2023-02-23T09:23:50.534Z,3.20
2023-02-23T09:26:19.753Z,3.04
2023-02-23T09:28:48.086Z,2.94
2023-02-23T09:31:19.130Z,2.81
2023-02-23T09:33:47.531Z,2.75
2023-02-23T09:36:17.400Z,2.65
2023-02-23T09:38:46.800Z,2.68
2023-02-23T09:41:43.741Z,2.67
2023-02-23T09:44:43.632Z,2.51
2023-02-23T09:47:21.755Z,2.29
2023-02-23T09:49:50.071Z,2.11
2023-02-23T09:52:24.965Z,2.12
2023-02-23T09:54:53.309Z,2.06
2023-02-23T09:57:25.428Z,1.92
2023-02-23T09:59:53.878Z,1.83
2023-02-23T10:02:35.370Z,1.82
2023-02-23T10:05:06.313Z,1.59
2023-02-23T10:07:51.859Z,1.30
2023-02-23T10:10:38.720Z,1.09
2023-02-23T10:13:17.246Z,0.71
2023-02-23T10:15:53.365Z,0.40
2023-02-23T10:18:45.601Z,0.25
2023-02-23T10:21:36.653Z,0.18
2023-02-23T10:24:08.236Z,0.23
2023-02-23T10:27:18.766Z,0.30
2023-02-23T10:29:57.346Z,0.43
2023-02-23T10:32:46.643Z,0.34
2023-02-23T10:35:22.504Z,0.18
2023-02-23T10:37:51.787Z,0.10
2023-02-23T10:40:25.272Z,0.13
2023-02-23T10:42:54.277Z,0.20
2023-02-23T10:45:26.625Z,0.29
2023-02-23T10:48:08.003Z,0.39
2023-02-23T10:50:39.542Z,0.25
2023-02-23T10:53:23.021Z,0.21
2023-02-23T10:56:11.694Z,0.13
2023-02-23T10:58:48.853Z,0.16
2023-02-23T11:01:46.242Z,0.07
2023-02-23T11:04:28.776Z,0.07
2023-02-23T11:07:20.220Z,0.10
2023-02-23T11:09:49.574Z,-0.01
2023-02-23T11:12:26.284Z,-0.03
2023-02-23T11:14:55.904Z,-0.16
2023-02-23T11:17:31.494Z,-0.21
2023-02-23T11:20:18.278Z,-0.32
2023-02-23T11:22:46.361Z,-0.34
2023-02-23T11:25:29.215Z,-0.46
2023-02-23T11:27:57.892Z,-0.45
2023-02-23T11:30:32.172Z,-0.57
2023-02-23T11:33:10.015Z,-0.59
2023-02-23T11:35:38.756Z,-0.69
2023-02-23T11:38:28.784Z,-0.69
2023-02-23T11:41:04.060Z,-0.72
2023-02-23T11:43:32.403Z,-0.68
2023-02-23T11:46:01.455Z,-0.79
2023-02-23T11:48:50.866Z,-0.85
2023-02-23T11:51:36.063Z,-0.85
2023-02-23T11:54:05.709Z,-0.84
2023-02-23T11:56:34.621Z,-0.83
2023-02-23T11:59:03.535Z,-0.83
2023-02-23T12:01:51.831Z,-0.88
2023-02-23T12:04:30.652Z,-0.85
2023-02-23T12:07:45.944Z,-0.86
2023-02-23T12:10:52.881Z,-0.79
2023-02-23T12:13:29.504Z,-0.84
2023-02-23T12:16:00.485Z,-0.87
2023-02-23T12:18:50.360Z,-0.82
2023-02-23T12:21:38.990Z,-0.88
2023-02-23T12:24:38.209Z,-0.91
2023-02-23T12:27:18.141Z,-0.95
2023-02-23T12:30:06.266Z,-0.83
2023-02-23T12:32:44.764Z,-0.92
2023-02-23T12:35:13.205Z,-0.83
2023-02-23T12:37:48.427Z,-0.81
2023-02-23T12:40:21.533Z,-0.89
2023-02-23T12:42:58.731Z,-0.84
2023-02-23T12:46:37.752Z,-0.81
2023-02-23T12:49:20.080Z,-0.90
2023-02-23T12:51:54.361Z,-0.92
2023-02-23T12:54:22.768Z,-0.99
2023-02-23T12:57:20.251Z,-0.95
2023-02-23T12:59:58.076Z,-0.93
2023-02-23T13:02:30.851Z,-0.96
2023-02-23T13:05:24.851Z,-0.93
2023-02-23T13:08:13.683Z,-0.89
2023-02-23T13:10:56.854Z,-0.88
2023-02-23T13:13:46.326Z,-0.86
2023-02-23T13:16:33.784Z,-0.89
2023-02-23T13:19:22.901Z,-0.92
2023-02-23T13:22:00.901Z,-0.91
2023-02-23T13:24:36.461Z,-0.88
2023-02-23T13:27:11.640Z,-0.85
2023-02-23T13:29:50.810Z,-0.74
2023-02-23T13:32:29.761Z,-0.72
2023-02-23T13:35:01.266Z,-0.71
2023-02-23T13:37:45.998Z,-0.70
2023-02-23T13:40:47.168Z,-0.73
2023-02-23T13:43:23.478Z,-0.85
2023-02-23T13:45:57.467Z,-0.77
2023-02-23T13:48:55.574Z,-0.87
2023-02-23T13:51:31.937Z,-0.87
2023-02-23T13:54:00.930Z,-0.98
2023-02-23T13:56:30.484Z,-1.01
2023-02-23T13:59:03.561Z,-0.98
2023-02-23T14:01:33.560Z,-0.98
2023-02-23T14:04:08.632Z,-1.00
2023-02-23T14:06:36.791Z,-0.96
2023-02-23T14:09:12.951Z,-0.95
2023-02-23T14:11:46.749Z,-0.94
2023-02-23T14:14:17.415Z,-0.96
2023-02-23T14:16:46.963Z,-0.98
2023-02-23T14:19:35.603Z,-1.00
2023-02-23T14:22:06.335Z,-0.98
2023-02-23T14:24:34.959Z,-0.91
2023-02-23T14:27:08.793Z,-0.89
2023-02-23T14:29:41.812Z,-0.90
2023-02-23T14:32:15.517Z,-0.86
2023-02-23T14:34:54.727Z,-0.93
2023-02-23T14:37:32.360Z,-0.92
2023-02-23T14:40:06.449Z,-0.92
2023-02-23T14:42:35.059Z,-0.96
2023-02-23T14:45:29.204Z,-0.98
2023-02-23T14:48:02.584Z,-0.96
2023-02-23T14:50:38.072Z,-0.98
2023-02-23T14:53:09.039Z,-0.87
2023-02-23T14:55:42.502Z,-0.89
2023-02-23T14:58:22.453Z,-0.81
2023-02-23T15:00:52.455Z,-0.82
2023-02-23T15:03:21.361Z,-0.77
2023-02-23T15:05:53.442Z,-0.75
2023-02-23T15:08:23.905Z,-0.76
2023-02-23T15:11:02.391Z,-0.73
2023-02-23T15:13:32.621Z,-0.79
2023-02-23T15:16:13.723Z,-0.77
2023-02-23T15:18:43.480Z,-0.84
2023-02-23T15:21:18.221Z,-0.83
2023-02-23T15:23:47.176Z,-0.83
2023-02-23T15:26:32.404Z,-0.87
2023-02-23T15:29:17.214Z,-0.93
2023-02-23T15:31:54.065Z,-0.90
2023-02-23T15:34:24.217Z,-0.93
2023-02-23T15:37:03.798Z,-0.82
2023-02-23T15:39:43.604Z,-0.76
2023-02-23T15:42:14.403Z,-0.72
2023-02-23T15:44:45.166Z,-0.74
2023-02-23T15:47:28.907Z,-0.76
2023-02-23T15:50:24.693Z,-0.71
2023-02-23T15:53:01.530Z,-0.78
2023-02-23T15:55:32.675Z,-0.69
2023-02-23T15:58:01.364Z,-0.68
2023-02-23T16:00:40.562Z,-0.66
2023-02-23T16:03:09.576Z,-0.78
2023-02-23T16:05:46.562Z,-0.82
2023-02-23T16:08:24.124Z,-0.93
2023-02-23T16:11:02.601Z,-1.07
2023-02-23T16:13:33.680Z,-1.18
2023-02-23T16:16:01.864Z,-1.24
2023-02-23T16:18:39.270Z,-1.25
2023-02-23T16:21:07.640Z,-1.27
2023-02-23T16:23:42.226Z,-1.26
2023-02-23T16:26:12.618Z,-1.35
2023-02-23T16:28:45.354Z,-1.46
2023-02-23T16:31:14.942Z,-1.57
2023-02-23T16:33:45.140Z,-1.62
2023-02-23T16:36:15.907Z,-1.66
2023-02-23T16:39:04.207Z,-1.79
2023-02-23T16:41:34.003Z,-1.87
2023-02-23T16:44:03.783Z,-1.93
2023-02-23T16:46:56.359Z,-2.01
2023-02-23T16:49:24.891Z,-2.05
2023-02-23T16:51:53.218Z,-2.11
2023-02-23T16:54:21.592Z,-2.04
2023-02-23T16:56:49.831Z,-2.05
2023-02-23T16:59:18.800Z,-2.07
2023-02-23T17:01:47.382Z,-2.12
2023-02-23T17:04:15.785Z,-2.06
2023-02-23T17:06:45.053Z,-2.16
2023-02-23T17:09:14.149Z,-2.17
2023-02-23T17:11:43.124Z,-2.16
2023-02-23T17:14:14.544Z,-2.23
2023-02-23T17:16:42.998Z,-2.21
2023-02-23T17:19:10.833Z,-2.29
2023-02-23T17:21:39.388Z,-2.32
2023-02-23T17:24:07.550Z,-2.42
2023-02-23T17:26:35.760Z,-2.55
2023-02-23T17:29:03.982Z,-2.69
2023-02-23T17:31:32.600Z,-2.75
2023-02-23T17:34:00.632Z,-2.69
2023-02-23T17:36:29.443Z,-2.66
2023-02-23T17:38:59.228Z,-2.65
2023-02-23T17:41:27.668Z,-2.67
2023-02-23T17:43:55.504Z,-2.65
2023-02-23T17:46:24.808Z,-2.60
2023-02-23T17:48:55.205Z,-2.60
2023-02-23T17:51:24.418Z,-2.55
2023-02-23T17:53:52.641Z,-2.50
2023-02-23T17:56:21.143Z,-2.46
2023-02-23T17:58:49.523Z,-2.43
2023-02-23T18:01:18.198Z,-2.34
2023-02-23T18:03:48.377Z,-2.31
2023-02-23T18:06:17.454Z,-2.31
2023-02-23T18:08:45.796Z,-2.30
2023-02-23T18:11:13.639Z,-2.27
2023-02-23T18:13:42.187Z,-2.23
2023-02-23T18:16:11.043Z,-2.25
2023-02-23T18:18:39.653Z,-2.24
2023-02-23T18:21:20.269Z,-2.22
2023-02-23T18:23:49.316Z,-2.13
2023-02-23T18:26:22.421Z,-2.05
2023-02-23T18:28:51.720Z,-2.08
2023-02-23T18:31:22.251Z,-2.15
2023-02-23T18:33:53.181Z,-2.14
2023-02-23T18:36:29.190Z,-2.17
2023-02-23T18:38:58.186Z,-2.23
2023-02-23T18:41:31.113Z,-2.26
2023-02-23T18:44:02.702Z,-2.26
2023-02-23T18:46:30.889Z,-2.16
2023-02-23T18:48:59.162Z,-2.13
2023-02-23T18:51:27.346Z,-2.09
2023-02-23T18:53:55.803Z,-2.10
2023-02-23T18:56:25.566Z,-2.07
2023-02-23T18:58:54.242Z,-2.07
2023-02-23T19:01:24.400Z,-2.09
2023-02-23T19:03:53.226Z,-2.17
2023-02-23T19:06:22.165Z,-2.24
2023-02-23T19:08:55.699Z,-2.26
2023-02-23T19:11:30.197Z,-2.38
2023-02-23T19:13:59.847Z,-2.34
2023-02-23T19:16:28.527Z,-2.32
2023-02-23T19:18:56.541Z,-2.43
2023-02-23T19:21:24.942Z,-2.44
2023-02-23T19:23:53.089Z,-2.48
2023-02-23T19:26:21.724Z,-2.48
2023-02-23T19:28:49.621Z,-2.56
2023-02-23T19:31:21.312Z,-2.65
2023-02-23T19:33:50.441Z,-2.71
2023-02-23T19:36:21.880Z,-2.74
2023-02-23T19:38:49.987Z,-2.81
2023-02-23T19:41:20.064Z,-2.88
2023-02-23T19:43:48.456Z,-3.02
2023-02-23T19:46:17.686Z,-3.11
2023-02-23T19:48:49.715Z,-3.22
2023-02-23T19:51:18.116Z,-3.31
2023-02-23T19:53:46.430Z,-3.44
2023-02-23T19:56:17.559Z,-3.55
2023-02-23T19:58:47.350Z,-3.65
2023-02-23T20:01:20.074Z,-3.78
2023-02-23T20:03:50.197Z,-3.80
2023-02-23T20:06:18.525Z,-4.00
2023-02-23T20:08:47.522Z,-4.03
2023-02-23T20:11:19.145Z,-4.02
2023-02-23T20:13:48.058Z,-3.98
2023-02-23T20:16:16.377Z,-4.00
2023-02-23T20:18:44.610Z,-4.02
2023-02-23T20:21:15.843Z,-4.01
2023-02-23T20:23:44.243Z,-4.06
2023-02-23T20:26:14.868Z,-4.03
2023-02-23T20:28:42.826Z,-4.04
2023-02-23T20:31:15.593Z,-4.11
2023-02-23T20:33:43.920Z,-4.09
2023-02-23T20:36:14.648Z,-4.14
2023-02-23T20:38:42.668Z,-4.16
2023-02-23T20:41:11.172Z,-4.16
2023-02-23T20:43:39.517Z,-4.20
2023-02-23T20:46:07.652Z,-4.22
2023-02-23T20:48:36.150Z,-4.24
2023-02-23T20:51:07.548Z,-4.26
2023-02-23T20:53:35.794Z,-4.25
2023-02-23T20:56:07.715Z,-4.26
2023-02-23T20:58:36.896Z,-4.30
2023-02-23T21:01:12.954Z,-4.30
2023-02-23T21:03:41.236Z,-4.31
2023-02-23T21:06:09.705Z,-4.30
2023-02-23T21:08:40.204Z,-4.29
2023-02-23T21:11:09.113Z,-4.32
2023-02-23T21:13:37.210Z,-4.30
2023-02-23T21:16:05.801Z,-4.32
2023-02-23T21:18:33.941Z,-4.34
2023-02-23T21:21:10.105Z,-4.40
2023-02-23T21:23:44.127Z,-4.39
2023-02-23T21:26:16.598Z,-4.38
2023-02-23T21:28:45.607Z,-4.42
2023-02-23T21:31:14.503Z,-4.44
2023-02-23T21:33:43.434Z,-4.48
2023-02-23T21:36:11.610Z,-4.47
2023-02-23T21:38:43.948Z,-4.47
2023-02-23T21:41:12.852Z,-4.47
2023-02-23T21:43:42.635Z,-4.50
2023-02-23T21:46:15.442Z,-4.48
2023-02-23T21:48:43.554Z,-4.48
2023-02-23T21:51:13.180Z,-4.54
2023-02-23T21:53:41.766Z,-4.56
2023-02-23T21:56:13.777Z,-4.55
2023-02-23T21:58:52.878Z,-4.57
2023-02-23T22:01:22.713Z,-4.59
2023-02-23T22:03:51.288Z,-4.58
2023-02-23T22:06:21.427Z,-4.62
2023-02-23T22:08:52.902Z,-4.62
2023-02-23T22:11:28.687Z,-4.65
2023-02-23T22:14:01.934Z,-4.66
2023-02-23T22:16:36.175Z,-4.69
2023-02-23T22:19:05.043Z,-4.75
2023-02-23T22:21:39.000Z,-4.76
2023-02-23T22:24:07.938Z,-4.85
2023-02-23T22:26:38.036Z,-4.82
2023-02-23T22:29:06.410Z,-4.89
2023-02-23T22:31:34.827Z,-4.91
2023-02-23T22:34:02.884Z,-4.97
2023-02-23T22:36:30.656Z,-4.97
2023-02-23T22:38:59.210Z,-5.02
2023-02-23T22:41:30.068Z,-5.01
2023-02-23T22:43:58.703Z,-5.04
2023-02-23T22:46:29.399Z,-5.10
2023-02-23T22:48:57.478Z,-5.12
2023-02-23T22:51:25.673Z,-5.14
2023-02-23T22:53:54.014Z,-5.17
2023-02-23T22:56:22.889Z,-5.20
2023-02-23T22:58:54.139Z,-5.21
2023-02-23T23:01:22.517Z,-5.20
2023-02-23T23:03:50.564Z,-5.23
2023-02-23T23:06:23.320Z,-5.28
2023-02-23T23:08:53.103Z,-5.32
2023-02-23T23:11:23.027Z,-5.29
2023-02-23T23:13:52.980Z,-5.37
2023-02-23T23:16:31.984Z,-5.35
2023-02-23T23:19:08.517Z,-5.35
2023-02-23T23:21:36.758Z,-5.31
2023-02-23T23:24:08.157Z,-5.19
2023-02-23T23:26:39.959Z,-5.09
2023-02-23T23:29:10.614Z,-4.98
2023-02-23T23:31:39.273Z,-4.93
2023-02-23T23:34:10.810Z,-4.85
2023-02-23T23:36:43.625Z,-4.78
2023-02-23T23:39:16.544Z,-4.63
2023-02-23T23:41:48.541Z,-4.57
2023-02-23T23:44:17.765Z,-4.46
2023-02-23T23:46:46.342Z,-4.48
2023-02-23T23:49:16.673Z,-4.39
2023-02-23T23:51:50.618Z,-4.28
2023-02-23T23:54:23.683Z,-4.17
2023-02-23T23:56:51.925Z,-4.07
2023-02-23T23:59:21.709Z,-4.00
